createdAt,value
2018-12-10T00:01:35.278Z,6.57
2018-12-10T00:04:04.234Z,7.90
2018-12-10T00:06:32.993Z,6.33
2018-12-10T00:09:02.245Z,7.37
2018-12-10T00:11:30.988Z,6.17
2018-12-10T00:14:00.487Z,7.20
2018-12-10T00:16:29.241Z,5.80
2018-12-10T00:18:58.225Z,5.50
2018-12-10T00:21:27.539Z,5.90
2018-12-10T00:23:56.224Z,7.33
2018-12-10T00:26:24.997Z,6.53
2018-12-10T00:28:54.310Z,5.83
2018-12-10T00:31:23.517Z,6.03
2018-12-10T00:33:52.184Z,5.93
2018-12-10T00:36:21.144Z,6.42
2018-12-10T00:38:49.847Z,4.60
2018-12-10T00:41:18.520Z,5.03
2018-12-10T00:43:47.678Z,5.97
2018-12-10T00:46:16.355Z,5.07
2018-12-10T00:48:45.217Z,5.30
2018-12-10T00:51:14.551Z,5.83
2018-12-10T00:53:43.197Z,4.87
2018-12-10T00:56:12.492Z,4.97
2018-12-10T00:58:41.282Z,4.50
2018-12-10T01:01:10.299Z,4.93
2018-12-10T01:03:38.972Z,5.87
2018-12-10T01:06:07.849Z,5.93
2018-12-10T01:08:36.719Z,5.70
2018-12-10T01:11:05.395Z,5.10
2018-12-10T01:13:34.082Z,4.20
2018-12-10T01:16:02.999Z,5.10
2018-12-10T01:18:31.683Z,4.30
2018-12-10T01:21:00.400Z,4.37
2018-12-10T01:23:29.097Z,4.40
2018-12-10T01:25:57.775Z,4.27
2018-12-10T01:28:26.472Z,4.20
2018-12-10T01:30:56.458Z,4.17
2018-12-10T01:33:25.252Z,5.00
2018-12-10T01:35:54.038Z,5.03
2018-12-10T01:38:23.051Z,4.27
2018-12-10T01:40:52.001Z,3.73
2018-12-10T01:43:20.876Z,4.93
2018-12-10T01:45:49.559Z,3.37
2018-12-10T01:48:18.645Z,4.37
2018-12-10T01:50:47.526Z,5.23
2018-12-10T01:53:16.212Z,4.40
2018-12-10T01:55:45.290Z,4.33
2018-12-10T01:58:13.953Z,4.70
2018-12-10T02:00:43.098Z,4.60
2018-12-10T02:03:11.783Z,4.47
2018-12-10T02:05:41.117Z,3.30
2018-12-10T02:08:10.340Z,4.47
2018-12-10T02:10:39.021Z,3.53
2018-12-10T02:13:07.719Z,3.70
2018-12-10T02:15:36.390Z,3.37
2018-12-10T02:18:05.100Z,3.10
2018-12-10T02:20:33.955Z,3.93
2018-12-10T02:23:02.850Z,3.30
2018-12-10T02:25:31.655Z,3.60
2018-12-10T02:28:00.369Z,4.33
2018-12-10T02:30:29.748Z,3.10
2018-12-10T02:32:58.723Z,2.63
2018-12-10T02:35:27.738Z,3.92
2018-12-10T02:37:56.546Z,2.80
2018-12-10T02:40:25.927Z,3.37
2018-12-10T02:42:55.214Z,3.13
2018-12-10T02:45:24.367Z,2.93
2018-12-10T02:47:53.302Z,2.87
2018-12-10T02:50:22.425Z,2.83
2018-12-10T02:52:51.193Z,3.42
2018-12-10T02:55:19.979Z,3.87
2018-12-10T02:57:49.181Z,3.67
2018-12-10T03:00:17.845Z,2.73
2018-12-10T03:02:46.528Z,3.20
2018-12-10T03:05:15.213Z,3.00
2018-12-10T03:07:44.007Z,3.40
2018-12-10T03:10:13.030Z,3.33
2018-12-10T03:12:41.712Z,2.83
2018-12-10T03:15:10.677Z,3.30
2018-12-10T03:17:39.578Z,3.17
2018-12-10T03:20:08.250Z,3.10
2018-12-10T03:22:37.912Z,3.10
2018-12-10T03:25:06.666Z,2.57
2018-12-10T03:27:35.869Z,3.75
2018-12-10T03:30:04.570Z,2.90
2018-12-10T03:32:33.260Z,2.83
2018-12-10T03:35:02.239Z,3.20
2018-12-10T03:37:31.119Z,2.53
2018-12-10T03:40:00.321Z,2.70
2018-12-10T03:42:29.205Z,2.80
2018-12-10T03:44:57.894Z,2.87
2018-12-10T03:47:26.990Z,3.00
2018-12-10T03:49:55.871Z,3.57
2018-12-10T03:52:24.905Z,3.60
2018-12-10T03:54:53.560Z,2.60
2018-12-10T03:57:22.320Z,2.13
2018-12-10T03:59:51.535Z,2.80
2018-12-10T04:02:20.712Z,2.50
2018-12-10T04:04:49.900Z,3.20
2018-12-10T04:07:18.932Z,2.97
2018-12-10T04:09:47.855Z,2.77
2018-12-10T04:12:16.561Z,2.10
2018-12-10T04:14:45.513Z,3.37
2018-12-10T04:17:14.300Z,2.60
2018-12-10T04:19:43.929Z,2.97
2018-12-10T04:22:12.641Z,2.22
2018-12-10T04:24:41.400Z,3.43
2018-12-10T04:27:10.793Z,1.83
2018-12-10T04:29:40.108Z,3.67
2018-12-10T04:32:08.879Z,1.93
2018-12-10T04:34:38.092Z,2.00
2018-12-10T04:37:06.751Z,2.83
2018-12-10T04:39:35.845Z,2.27
2018-12-10T04:42:05.365Z,2.03
2018-12-10T04:44:34.079Z,2.23
2018-12-10T04:47:02.807Z,2.03
2018-12-10T04:49:31.512Z,2.47
2018-12-10T04:52:00.717Z,2.72
2018-12-10T04:54:29.429Z,2.08
2018-12-10T04:56:58.113Z,2.73
2018-12-10T04:59:26.864Z,1.80
2018-12-10T05:01:55.787Z,2.85
2018-12-10T05:04:24.689Z,2.20
2018-12-10T05:06:53.379Z,2.10
2018-12-10T05:09:22.459Z,1.65
2018-12-10T05:11:51.855Z,2.43
2018-12-10T05:14:20.531Z,2.73
2018-12-10T05:16:49.456Z,2.60
2018-12-10T05:19:18.360Z,1.87
2018-12-10T05:21:47.448Z,2.20
2018-12-10T05:24:16.110Z,1.70
2018-12-10T05:26:44.786Z,1.83
2018-12-10T05:29:13.520Z,2.03
2018-12-10T05:31:42.762Z,1.87
2018-12-10T05:34:11.504Z,1.90
2018-12-10T05:36:40.278Z,2.53
2018-12-10T05:39:08.982Z,2.30
2018-12-10T05:41:38.127Z,2.13
2018-12-10T05:44:07.256Z,1.90
2018-12-10T05:46:36.206Z,1.80
2018-12-10T05:49:06.025Z,2.85
2018-12-10T05:51:36.050Z,2.50
2018-12-10T05:54:04.939Z,2.70
2018-12-10T05:56:33.965Z,2.60
2018-12-10T05:59:02.630Z,2.30
2018-12-10T06:01:31.884Z,2.40
2018-12-10T06:04:00.542Z,2.20
2018-12-10T06:06:29.588Z,1.70
2018-12-10T06:08:58.492Z,2.20
2018-12-10T06:11:27.210Z,2.10
2018-12-10T06:13:56.334Z,2.10
2018-12-10T06:16:25.270Z,2.33
2018-12-10T06:18:53.932Z,2.07
2018-12-10T06:21:22.602Z,1.90
2018-12-10T06:23:51.513Z,2.07
2018-12-10T06:26:20.325Z,2.20
2018-12-10T06:28:49.402Z,2.27
2018-12-10T06:31:18.409Z,1.80
2018-12-10T06:33:47.384Z,1.70
2018-12-10T06:36:16.434Z,2.60
2018-12-10T06:38:45.382Z,1.40
2018-12-10T06:41:14.396Z,1.90
2018-12-10T06:43:43.783Z,1.63
2018-12-10T06:46:13.189Z,2.37
2018-12-10T06:48:41.973Z,1.93
2018-12-10T06:51:10.981Z,1.52
2018-12-10T06:53:39.812Z,1.70
2018-12-10T06:56:09.092Z,1.73
2018-12-10T06:58:38.368Z,1.60
2018-12-10T07:01:07.517Z,1.60
2018-12-10T07:03:36.431Z,1.60
2018-12-10T07:06:05.157Z,1.80
2018-12-10T07:08:34.042Z,1.73
2018-12-10T07:11:03.240Z,2.00
2018-12-10T07:13:32.150Z,2.07
2018-12-10T07:16:01.044Z,1.43
2018-12-10T07:18:29.780Z,1.67
2018-12-10T07:20:59.096Z,1.93
2018-12-10T07:23:27.766Z,2.03
2018-12-10T07:25:57.077Z,1.73
2018-12-10T07:28:26.460Z,1.70
2018-12-10T07:30:56.729Z,1.97
2018-12-10T07:33:25.651Z,2.10
2018-12-10T07:35:54.539Z,2.30
2018-12-10T07:38:23.257Z,1.90
2018-12-10T07:40:52.261Z,2.00
2018-12-10T07:43:20.964Z,1.70
2018-12-10T07:45:49.701Z,2.87
2018-12-10T07:48:19.033Z,2.90
2018-12-10T07:50:47.986Z,3.27
2018-12-10T07:53:16.926Z,4.03
2018-12-10T07:55:45.603Z,7.33
2018-12-10T07:58:14.282Z,8.20
2018-12-10T08:00:43.070Z,7.87
2018-12-10T08:03:11.998Z,8.13
2018-12-10T08:05:41.573Z,7.50
2018-12-10T08:08:11.035Z,8.03
2018-12-10T08:10:39.737Z,6.90
2018-12-10T08:13:08.671Z,7.17
2018-12-10T08:15:37.378Z,7.83
2018-12-10T08:18:06.093Z,6.37
2018-12-10T08:20:34.762Z,7.07
2018-12-10T08:23:04.143Z,5.10
2018-12-10T08:25:32.841Z,5.87
2018-12-10T08:28:02.216Z,4.60
2018-12-10T08:30:31.650Z,4.40
2018-12-10T08:33:00.629Z,4.50
2018-12-10T08:35:30.073Z,4.90
2018-12-10T08:37:58.794Z,3.63
2018-12-10T08:40:27.445Z,3.20
2018-12-10T08:42:56.781Z,3.60
2018-12-10T08:45:25.523Z,4.50
2018-12-10T08:47:54.770Z,4.10
2018-12-10T08:50:23.551Z,4.20
2018-12-10T08:52:52.607Z,4.23
2018-12-10T08:55:21.402Z,4.60
2018-12-10T08:57:50.084Z,4.00
2018-12-10T09:00:19.445Z,5.67
2018-12-10T09:02:48.154Z,5.90
2018-12-10T09:05:16.878Z,4.50
2018-12-10T09:07:45.554Z,4.17
2018-12-10T09:10:14.616Z,3.40
2018-12-10T09:12:46.895Z,3.47
2018-12-10T09:15:15.015Z,3.20
2018-12-10T09:17:43.947Z,2.70
2018-12-10T09:20:12.689Z,3.40
2018-12-10T09:22:42.036Z,3.77
2018-12-10T09:25:10.847Z,2.60
2018-12-10T09:27:40.025Z,3.40
2018-12-10T09:30:10.894Z,3.23
2018-12-10T09:32:39.789Z,3.80
2018-12-10T09:35:08.713Z,2.30
2018-12-10T09:37:37.488Z,2.40
2018-12-10T09:40:06.710Z,2.90
2018-12-10T09:42:35.729Z,2.93
2018-12-10T09:45:06.551Z,2.30
2018-12-10T09:47:35.311Z,2.67
2018-12-10T09:50:05.753Z,2.53
2018-12-10T09:52:35.047Z,2.47
2018-12-10T09:55:04.966Z,2.70
2018-12-10T09:57:33.913Z,2.33
2018-12-10T10:00:04.070Z,2.60
2018-12-10T10:02:32.866Z,2.50
2018-12-10T10:05:01.546Z,2.27
2018-12-10T10:07:30.341Z,2.00
2018-12-10T10:10:00.243Z,2.87
2018-12-10T10:12:29.130Z,1.90
2018-12-10T10:14:57.806Z,2.40
2018-12-10T10:17:26.486Z,2.67
2018-12-10T10:19:55.524Z,2.17
2018-12-10T10:22:24.828Z,1.60
2018-12-10T10:24:53.503Z,2.93
2018-12-10T10:27:22.220Z,1.50
2018-12-10T10:29:50.904Z,1.87
2018-12-10T10:32:20.181Z,1.80
2018-12-10T10:34:49.472Z,2.97
2018-12-10T10:37:18.175Z,2.00
2018-12-10T10:39:47.542Z,2.30
2018-12-10T10:42:16.573Z,2.07
2018-12-10T10:44:45.284Z,1.80
2018-12-10T10:47:14.570Z,2.13
2018-12-10T10:49:43.264Z,2.27
2018-12-10T10:52:11.956Z,1.90
2018-12-10T10:54:40.844Z,1.37
2018-12-10T10:57:09.714Z,1.30
2018-12-10T10:59:38.410Z,2.30
2018-12-10T11:05:16.843Z,1.60
2018-12-10T11:07:46.023Z,1.70
2018-12-10T11:10:15.115Z,1.67
2018-12-10T11:12:43.866Z,1.32
2018-12-10T11:15:13.277Z,1.10
2018-12-10T11:17:41.985Z,2.00
2018-12-10T11:20:10.764Z,1.50
2018-12-10T11:22:40.485Z,1.75
2018-12-10T11:25:11.710Z,1.20
2018-12-10T11:27:40.486Z,1.83
2018-12-10T11:30:09.730Z,1.60
2018-12-10T11:32:38.416Z,1.40
2018-12-10T11:35:07.800Z,1.67
2018-12-10T11:37:36.847Z,1.03
2018-12-10T11:40:05.709Z,1.33
2018-12-10T11:42:34.390Z,1.00
2018-12-10T11:45:03.672Z,1.50
2018-12-10T11:47:32.483Z,1.30
2018-12-10T11:50:01.141Z,1.70
2018-12-10T11:52:30.431Z,1.27
2018-12-10T11:54:59.724Z,1.43
2018-12-10T11:57:28.605Z,1.40
2018-12-10T11:59:57.445Z,1.20
2018-12-10T12:02:29.735Z,1.33
2018-12-10T12:04:57.337Z,1.50
2018-12-10T12:07:26.245Z,1.10
2018-12-10T12:09:55.113Z,2.00
2018-12-10T12:12:23.822Z,1.13
2018-12-10T12:14:52.825Z,1.30
2018-12-10T12:17:21.624Z,0.93
2018-12-10T12:19:51.371Z,0.95
2018-12-10T12:22:20.298Z,1.37
2018-12-10T12:24:49.175Z,1.90
2018-12-10T12:27:18.117Z,1.50
2018-12-10T12:29:47.225Z,1.50
2018-12-10T12:32:17.319Z,2.00
2018-12-10T12:34:46.021Z,2.73
2018-12-10T12:37:14.925Z,3.62
2018-12-10T12:39:43.983Z,2.80
2018-12-10T12:42:13.311Z,3.80
2018-12-10T12:44:42.023Z,3.10
2018-12-10T12:47:10.735Z,3.27
2018-12-10T12:49:39.977Z,4.13
2018-12-10T12:52:08.739Z,2.57
2018-12-10T12:54:37.647Z,2.33
2018-12-10T12:57:06.653Z,2.80
2018-12-10T12:59:35.347Z,2.77
2018-12-10T13:02:04.062Z,3.43
2018-12-10T13:04:33.319Z,2.05
2018-12-10T13:07:02.045Z,2.67
2018-12-10T13:09:30.997Z,3.70
2018-12-10T13:11:59.993Z,3.07
2018-12-10T13:14:28.677Z,2.70
2018-12-10T13:16:57.986Z,2.95
2018-12-10T13:19:27.365Z,3.10
2018-12-10T13:21:56.254Z,2.33
2018-12-10T13:24:25.800Z,2.90
2018-12-10T13:26:54.696Z,3.03
2018-12-10T13:29:31.003Z,2.10
2018-12-10T13:31:55.003Z,2.03
2018-12-10T13:34:23.766Z,2.67
2018-12-10T13:36:52.688Z,2.37
2018-12-10T13:39:21.484Z,1.67
2018-12-10T13:41:50.156Z,2.77
2018-12-10T13:44:19.663Z,2.13
2018-12-10T13:46:48.343Z,2.47
2018-12-10T13:49:17.646Z,2.13
2018-12-10T13:51:46.325Z,2.30
2018-12-10T13:54:15.718Z,2.07
2018-12-10T13:56:44.688Z,2.63
2018-12-10T13:59:13.563Z,2.53
2018-12-10T14:01:42.288Z,2.10
2018-12-10T14:04:12.413Z,2.85
2018-12-10T14:06:41.357Z,2.40
2018-12-10T14:09:10.795Z,2.60
2018-12-10T14:11:39.917Z,2.33
2018-12-10T14:14:08.592Z,2.30
2018-12-10T14:16:37.533Z,2.30
2018-12-10T14:19:06.310Z,2.50
2018-12-10T14:21:35.585Z,2.13
2018-12-10T14:24:04.902Z,2.70
2018-12-10T14:26:33.868Z,2.80
2018-12-10T14:29:02.594Z,2.20
2018-12-10T14:31:31.330Z,2.83
2018-12-10T14:34:01.987Z,2.00
2018-12-10T14:36:30.677Z,1.67
2018-12-10T14:38:59.452Z,2.33
2018-12-10T14:41:28.644Z,2.87
2018-12-10T14:43:57.318Z,2.50
2018-12-10T14:46:26.450Z,2.07
2018-12-10T14:48:55.990Z,2.20
2018-12-10T14:51:25.341Z,2.17
2018-12-10T14:53:54.366Z,2.20
2018-12-10T14:56:23.037Z,2.60
2018-12-10T14:58:52.009Z,2.43
2018-12-10T15:01:20.919Z,2.10
2018-12-10T15:03:50.001Z,2.20
2018-12-10T15:06:18.896Z,1.80
2018-12-10T15:08:47.578Z,1.73
2018-12-10T15:11:16.714Z,2.07
2018-12-10T15:13:45.672Z,1.60
2018-12-10T15:16:14.333Z,2.27
2018-12-10T15:18:43.849Z,2.20
2018-12-10T15:21:12.662Z,2.20
2018-12-10T15:23:41.597Z,2.37
2018-12-10T15:26:10.895Z,2.60
2018-12-10T15:28:39.652Z,3.20
2018-12-10T15:31:08.353Z,2.00
2018-12-10T15:33:37.053Z,2.80
2018-12-10T15:36:05.903Z,2.43
2018-12-10T15:38:35.287Z,2.97
2018-12-10T15:41:04.304Z,2.57
2018-12-10T15:43:33.182Z,2.27
2018-12-10T15:46:01.855Z,2.50
2018-12-10T15:48:30.619Z,2.93
2018-12-10T15:50:59.667Z,1.62
2018-12-10T15:53:28.601Z,2.00
2018-12-10T15:55:57.864Z,1.90
2018-12-10T15:58:26.558Z,2.40
2018-12-10T16:00:55.839Z,1.75
2018-12-10T16:03:25.119Z,1.70
2018-12-10T16:05:54.536Z,2.20
2018-12-10T16:08:23.441Z,2.17
2018-12-10T16:10:52.326Z,2.47
2018-12-10T16:13:21.020Z,2.30
2018-12-10T16:15:49.874Z,2.20
2018-12-10T16:18:18.769Z,2.17
2018-12-10T16:20:47.481Z,1.87
2018-12-10T16:23:16.461Z,1.87
2018-12-10T16:25:45.230Z,2.20
2018-12-10T16:28:14.270Z,1.70
2018-12-10T16:30:43.797Z,2.20
2018-12-10T16:33:12.501Z,2.63
2018-12-10T16:35:41.425Z,1.50
2018-12-10T16:38:10.264Z,1.47
2018-12-10T16:40:39.053Z,1.77
2018-12-10T16:43:07.899Z,1.80
2018-12-10T16:45:36.894Z,1.85
2018-12-10T16:48:05.985Z,2.43
2018-12-10T16:50:35.501Z,1.80
2018-12-10T16:53:04.391Z,1.97
2018-12-10T16:55:33.359Z,2.03
2018-12-10T16:58:02.068Z,2.35
2018-12-10T17:00:30.835Z,2.30
2018-12-10T17:02:59.726Z,2.30
2018-12-10T17:05:28.937Z,2.17
2018-12-10T17:07:57.822Z,2.03
2018-12-10T17:10:27.401Z,2.03
2018-12-10T17:12:56.286Z,2.87
2018-12-10T17:15:25.407Z,1.92
2018-12-10T17:17:54.954Z,2.60
2018-12-10T17:20:23.885Z,2.27
2018-12-10T17:22:52.788Z,1.80
2018-12-10T17:25:21.989Z,2.47
2018-12-10T17:27:51.234Z,2.50
2018-12-10T17:30:20.135Z,2.13
2018-12-10T17:32:49.083Z,2.65
2018-12-10T17:35:17.744Z,1.50
2018-12-10T17:37:46.871Z,2.70
2018-12-10T17:40:15.568Z,2.63
2018-12-10T17:42:44.334Z,1.70
2018-12-10T17:45:13.253Z,1.77
2018-12-10T17:47:42.236Z,2.30
2018-12-10T17:50:11.496Z,2.40
2018-12-10T17:52:40.830Z,1.90
2018-12-10T17:55:09.606Z,2.03
2018-12-10T17:57:38.813Z,2.10
2018-12-10T18:00:09.474Z,2.00
2018-12-10T18:02:38.458Z,1.60
2018-12-10T18:05:07.426Z,2.00
2018-12-10T18:07:36.450Z,1.70
2018-12-10T18:10:06.756Z,1.22
2018-12-10T18:12:35.634Z,1.90
2018-12-10T18:15:06.188Z,1.90
2018-12-10T18:17:34.901Z,2.20
2018-12-10T18:20:05.559Z,2.70
2018-12-10T18:22:34.233Z,1.63
2018-12-10T18:25:04.196Z,2.03
2018-12-10T18:27:33.203Z,1.43
2018-12-10T18:30:02.107Z,1.80
2018-12-10T18:32:31.004Z,2.08
2018-12-10T18:34:59.942Z,2.00
2018-12-10T18:37:28.832Z,1.90
2018-12-10T18:39:58.044Z,2.20
2018-12-10T18:42:26.933Z,2.33
2018-12-10T18:44:55.610Z,1.90
2018-12-10T18:47:24.669Z,2.10
2018-12-10T18:49:53.342Z,1.60
2018-12-10T18:52:23.302Z,1.60
2018-12-10T18:54:51.967Z,1.87
2018-12-10T18:57:20.653Z,1.10
2018-12-10T18:59:49.549Z,1.82
2018-12-10T19:02:18.212Z,1.70
2018-12-10T19:04:47.298Z,2.13
2018-12-10T19:07:16.173Z,1.20
2018-12-10T19:09:45.569Z,1.80
2018-12-10T19:12:14.580Z,1.93
2018-12-10T19:14:43.558Z,1.40
2018-12-10T19:17:12.595Z,1.50
2018-12-10T19:19:41.985Z,1.98
2018-12-10T19:22:11.372Z,1.63
2018-12-10T19:24:40.158Z,1.90
2018-12-10T19:27:09.073Z,1.47
2018-12-10T19:29:38.756Z,1.30
2018-12-10T19:32:07.774Z,1.30
2018-12-10T19:34:36.739Z,1.40
2018-12-10T19:37:05.691Z,1.23
2018-12-10T19:39:34.431Z,1.30
2018-12-10T19:42:03.338Z,1.67
2018-12-10T19:44:32.617Z,1.33
2018-12-10T19:47:01.802Z,1.93
2018-12-10T19:49:31.123Z,1.20
2018-12-10T19:51:59.850Z,1.33
2018-12-10T19:54:28.839Z,1.72
2018-12-10T19:56:57.923Z,1.07
2018-12-10T19:59:26.664Z,1.03
2018-12-10T20:01:55.992Z,1.27
2018-12-10T20:04:24.992Z,1.50
2018-12-10T20:06:59.487Z,1.80
2018-12-10T20:12:01.901Z,1.40
2018-12-10T20:14:30.823Z,1.37
2018-12-10T20:17:00.183Z,1.50
2018-12-10T20:19:29.486Z,2.10
2018-12-10T20:21:59.176Z,3.20
2018-12-10T20:24:27.951Z,3.50
2018-12-10T20:26:57.345Z,4.13
2018-12-10T20:29:26.105Z,4.30
2018-12-10T20:31:55.174Z,4.63
2018-12-10T20:34:23.971Z,4.70
2018-12-10T20:36:54.304Z,4.30
2018-12-10T20:39:23.142Z,5.23
2018-12-10T20:41:51.873Z,5.80
2018-12-10T20:44:20.819Z,4.63
2018-12-10T20:46:50.516Z,4.33
2018-12-10T20:49:19.810Z,4.60
2018-12-10T20:51:48.768Z,5.10
2018-12-10T20:54:17.839Z,5.30
2018-12-10T20:56:46.594Z,5.00
2018-12-10T20:59:15.732Z,5.80
2018-12-10T21:01:44.898Z,4.33
2018-12-10T21:04:13.845Z,4.60
2018-12-10T21:06:42.755Z,4.40
2018-12-10T21:09:12.020Z,4.83
2018-12-10T21:11:40.752Z,5.27
2018-12-10T21:14:09.700Z,4.10
2018-12-10T21:16:38.728Z,5.28
2018-12-10T21:19:07.636Z,4.60
2018-12-10T21:21:36.596Z,5.65
2018-12-10T21:24:06.247Z,5.30
2018-12-10T21:26:35.184Z,4.10
2018-12-10T21:29:03.949Z,4.63
2018-12-10T21:31:32.774Z,4.00
2018-12-10T21:34:01.682Z,4.27
2018-12-10T21:36:30.909Z,4.60
2018-12-10T21:38:59.809Z,4.30
2018-12-10T21:41:28.796Z,3.13
2018-12-10T21:43:57.579Z,4.33
2018-12-10T21:46:26.526Z,3.77
2018-12-10T21:48:55.327Z,3.63
2018-12-10T21:51:24.151Z,3.40
2018-12-10T21:53:52.831Z,4.10
2018-12-10T21:56:21.617Z,3.97
2018-12-10T21:58:50.821Z,3.83
2018-12-10T22:01:19.497Z,4.60
2018-12-10T22:03:48.923Z,4.20
2018-12-10T22:06:18.025Z,3.37
2018-12-10T22:08:46.989Z,3.58
2018-12-10T22:11:15.922Z,3.83
2018-12-10T22:13:44.879Z,3.67
2018-12-10T22:16:13.757Z,3.37
2018-12-10T22:18:42.475Z,3.30
2018-12-10T22:21:11.270Z,3.47
2018-12-10T22:23:40.523Z,3.27
2018-12-10T22:26:09.788Z,3.80
2018-12-10T22:28:39.183Z,3.40
2018-12-10T22:31:08.139Z,3.67
2018-12-10T22:33:37.156Z,3.17
2018-12-10T22:36:05.836Z,3.30
2018-12-10T22:38:34.515Z,3.30
2018-12-10T22:41:03.441Z,3.43
2018-12-10T22:43:32.338Z,3.50
2018-12-10T22:46:01.132Z,3.37
2018-12-10T22:48:30.519Z,3.90
2018-12-10T22:50:59.209Z,3.50
2018-12-10T22:53:28.062Z,2.93
2018-12-10T22:55:56.738Z,3.17
2018-12-10T22:58:25.537Z,3.07
2018-12-10T23:00:54.453Z,3.10
2018-12-10T23:03:23.112Z,2.70
2018-12-10T23:05:52.215Z,3.10
2018-12-10T23:08:21.401Z,2.77
2018-12-10T23:10:50.080Z,3.53
2018-12-10T23:13:19.213Z,3.63
2018-12-10T23:15:48.185Z,3.30
2018-12-10T23:18:17.289Z,2.92
2018-12-10T23:20:46.230Z,3.00
2018-12-10T23:23:15.360Z,3.20
2018-12-10T23:25:44.071Z,2.97
2018-12-10T23:28:18.273Z,3.10
2018-12-10T23:30:47.045Z,2.50
2018-12-10T23:33:16.054Z,2.33
2018-12-10T23:35:44.858Z,3.37
2018-12-10T23:38:13.807Z,2.87
2018-12-10T23:40:42.755Z,3.03
2018-12-10T23:43:17.209Z,2.03
2018-12-10T23:45:51.261Z,2.43
2018-12-10T23:48:25.323Z,2.60
2018-12-10T23:50:59.592Z,2.40
2018-12-10T23:53:28.265Z,2.43
2018-12-10T23:55:57.322Z,2.70
2018-12-10T23:58:26.425Z,2.27
